sensor_id;sensor_type;location;lat;lon;timestamp;P1;durP1;ratioP1;P2;durP2;ratioP2
56927;SDS011;60850;52.502;13.426;2023-03-01T00:01:08;22.75;;;11.00;;
56927;SDS011;60850;52.502;13.426;2023-03-01T00:03:36;20.60;;;10.68;;
56927;SDS011;60850;52.502;13.426;2023-03-01T00:06:04;33.08;;;10.95;;
56927;SDS011;60850;52.502;13.426;2023-03-01T00:08:33;26.52;;;10.55;;
56927;SDS011;60850;52.502;13.426;2023-03-01T00:11:01;19.65;;;9.43;;
56927;SDS011;60850;52.502;13.426;2023-03-01T00:13:30;24.27;;;10.68;;
56927;SDS011;60850;52.502;13.426;2023-03-01T00:15:57;25.13;;;10.15;;
56927;SDS011;60850;52.502;13.426;2023-03-01T00:18:24;29.42;;;11.10;;
56927;SDS011;60850;52.502;13.426;2023-03-01T00:20:51;32.03;;;12.05;;
56927;SDS011;60850;52.502;13.426;2023-03-01T00:23:18;29.05;;;12.88;;
56927;SDS011;60850;52.502;13.426;2023-03-01T00:25:47;30.77;;;12.50;;
56927;SDS011;60850;52.502;13.426;2023-03-01T00:28:15;28.65;;;13.18;;
56927;SDS011;60850;52.502;13.426;2023-03-01T00:30:42;22.83;;;13.00;;
56927;SDS011;60850;52.502;13.426;2023-03-01T00:33:09;28.23;;;11.38;;
56927;SDS011;60850;52.502;13.426;2023-03-01T00:35:36;21.65;;;10.77;;
56927;SDS011;60850;52.502;13.426;2023-03-01T00:38:03;24.42;;;11.00;;
56927;SDS011;60850;52.502;13.426;2023-03-01T00:40:32;26.70;;;11.20;;
56927;SDS011;60850;52.502;13.426;2023-03-01T00:43:01;22.80;;;10.88;;
56927;SDS011;60850;52.502;13.426;2023-03-01T00:45:29;22.65;;;9.70;;
56927;SDS011;60850;52.502;13.426;2023-03-01T00:47:56;21.20;;;9.82;;
56927;SDS011;60850;52.502;13.426;2023-03-01T00:50:23;19.52;;;9.52;;
56927;SDS011;60850;52.502;13.426;2023-03-01T00:52:52;16.92;;;8.80;;
56927;SDS011;60850;52.502;13.426;2023-03-01T00:55:19;25.77;;;10.88;;
56927;SDS011;60850;52.502;13.426;2023-03-01T00:57:46;24.38;;;10.93;;
56927;SDS011;60850;52.502;13.426;2023-03-01T01:00:15;21.75;;;11.00;;
56927;SDS011;60850;52.502;13.426;2023-03-01T01:02:43;21.77;;;11.13;;
56927;SDS011;60850;52.502;13.426;2023-03-01T01:05:10;27.52;;;12.15;;
56927;SDS011;60850;52.502;13.426;2023-03-01T01:07:38;23.40;;;10.93;;
56927;SDS011;60850;52.502;13.426;2023-03-01T01:10:05;24.05;;;10.88;;
56927;SDS011;60850;52.502;13.426;2023-03-01T01:12:33;21.15;;;9.25;;
56927;SDS011;60850;52.502;13.426;2023-03-01T01:15:00;17.00;;;8.00;;
56927;SDS011;60850;52.502;13.426;2023-03-01T01:17:31;19.45;;;9.20;;
56927;SDS011;60850;52.502;13.426;2023-03-01T01:19:58;17.98;;;8.90;;
56927;SDS011;60850;52.502;13.426;2023-03-01T01:22:25;20.80;;;10.85;;
56927;SDS011;60850;52.502;13.426;2023-03-01T01:24:52;18.65;;;8.93;;
56927;SDS011;60850;52.502;13.426;2023-03-01T01:27:19;22.05;;;9.48;;
56927;SDS011;60850;52.502;13.426;2023-03-01T01:29:45;19.08;;;8.65;;
56927;SDS011;60850;52.502;13.426;2023-03-01T01:32:13;22.63;;;9.45;;
56927;SDS011;60850;52.502;13.426;2023-03-01T01:34:41;20.30;;;9.77;;
56927;SDS011;60850;52.502;13.426;2023-03-01T01:37:08;17.65;;;9.00;;
56927;SDS011;60850;52.502;13.426;2023-03-01T01:39:34;22.13;;;8.90;;
56927;SDS011;60850;52.502;13.426;2023-03-01T01:42:02;18.48;;;9.48;;
56927;SDS011;60850;52.502;13.426;2023-03-01T01:44:29;18.30;;;9.02;;
56927;SDS011;60850;52.502;13.426;2023-03-01T01:46:57;21.20;;;8.65;;
56927;SDS011;60850;52.502;13.426;2023-03-01T01:49:28;22.02;;;8.50;;
56927;SDS011;60850;52.502;13.426;2023-03-01T01:52:02;16.52;;;8.18;;
56927;SDS011;60850;52.502;13.426;2023-03-01T01:54:37;18.52;;;8.20;;
56927;SDS011;60850;52.502;13.426;2023-03-01T01:57:11;15.90;;;8.13;;
56927;SDS011;60850;52.502;13.426;2023-03-01T01:59:42;19.45;;;8.73;;
56927;SDS011;60850;52.502;13.426;2023-03-01T02:02:12;23.80;;;9.82;;
56927;SDS011;60850;52.502;13.426;2023-03-01T02:04:39;17.23;;;7.50;;
56927;SDS011;60850;52.502;13.426;2023-03-01T02:07:09;17.63;;;7.60;;
56927;SDS011;60850;52.502;13.426;2023-03-01T02:09:41;15.20;;;7.40;;
56927;SDS011;60850;52.502;13.426;2023-03-01T02:12:12;17.13;;;8.25;;
56927;SDS011;60850;52.502;13.426;2023-03-01T02:14:39;17.83;;;8.00;;
56927;SDS011;60850;52.502;13.426;2023-03-01T02:17:06;18.33;;;7.75;;
56927;SDS011;60850;52.502;13.426;2023-03-01T02:19:40;19.88;;;8.23;;
56927;SDS011;60850;52.502;13.426;2023-03-01T02:22:19;22.02;;;8.48;;
56927;SDS011;60850;52.502;13.426;2023-03-01T02:24:52;16.95;;;7.35;;
56927;SDS011;60850;52.502;13.426;2023-03-01T02:27:33;16.95;;;7.45;;
56927;SDS011;60850;52.502;13.426;2023-03-01T02:30:06;14.30;;;7.28;;
56927;SDS011;60850;52.502;13.426;2023-03-01T02:32:38;19.35;;;8.98;;
56927;SDS011;60850;52.502;13.426;2023-03-01T02:35:07;21.52;;;9.50;;
56927;SDS011;60850;52.502;13.426;2023-03-01T02:37:37;20.67;;;8.32;;
56927;SDS011;60850;52.502;13.426;2023-03-01T02:40:06;16.95;;;9.00;;
56927;SDS011;60850;52.502;13.426;2023-03-01T02:42:40;19.40;;;8.55;;
56927;SDS011;60850;52.502;13.426;2023-03-01T02:45:13;18.63;;;8.48;;
56927;SDS011;60850;52.502;13.426;2023-03-01T02:47:40;20.17;;;8.05;;
56927;SDS011;60850;52.502;13.426;2023-03-01T02:50:15;16.73;;;7.97;;
56927;SDS011;60850;52.502;13.426;2023-03-01T02:52:53;17.48;;;8.55;;
56927;SDS011;60850;52.502;13.426;2023-03-01T02:55:23;16.65;;;7.07;;
56927;SDS011;60850;52.502;13.426;2023-03-01T02:57:51;17.77;;;7.45;;
56927;SDS011;60850;52.502;13.426;2023-03-01T03:00:20;17.92;;;8.30;;
56927;SDS011;60850;52.502;13.426;2023-03-01T03:02:51;17.80;;;8.43;;
56927;SDS011;60850;52.502;13.426;2023-03-01T03:05:22;15.48;;;7.57;;
56927;SDS011;60850;52.502;13.426;2023-03-01T03:07:52;18.48;;;8.20;;
56927;SDS011;60850;52.502;13.426;2023-03-01T03:10:21;15.45;;;8.10;;
56927;SDS011;60850;52.502;13.426;2023-03-01T03:12:49;19.83;;;8.85;;
56927;SDS011;60850;52.502;13.426;2023-03-01T03:15:17;19.35;;;8.38;;
56927;SDS011;60850;52.502;13.426;2023-03-01T03:17:47;20.05;;;8.63;;
56927;SDS011;60850;52.502;13.426;2023-03-01T03:20:15;17.55;;;8.52;;
56927;SDS011;60850;52.502;13.426;2023-03-01T03:22:45;22.17;;;8.18;;
56927;SDS011;60850;52.502;13.426;2023-03-01T03:25:13;24.65;;;7.72;;
56927;SDS011;60850;52.502;13.426;2023-03-01T03:27:42;17.35;;;7.47;;
56927;SDS011;60850;52.502;13.426;2023-03-01T03:30:12;16.25;;;8.70;;
56927;SDS011;60850;52.502;13.426;2023-03-01T03:32:40;17.52;;;7.72;;
56927;SDS011;60850;52.502;13.426;2023-03-01T03:35:19;14.18;;;6.95;;
56927;SDS011;60850;52.502;13.426;2023-03-01T03:37:48;16.60;;;8.73;;
56927;SDS011;60850;52.502;13.426;2023-03-01T03:40:32;18.98;;;8.07;;
56927;SDS011;60850;52.502;13.426;2023-03-01T03:43:01;16.90;;;7.95;;
56927;SDS011;60850;52.502;13.426;2023-03-01T03:45:28;18.58;;;9.27;;
56927;SDS011;60850;52.502;13.426;2023-03-01T03:47:58;20.95;;;9.13;;
56927;SDS011;60850;52.502;13.426;2023-03-01T03:50:26;20.25;;;8.40;;
56927;SDS011;60850;52.502;13.426;2023-03-01T03:52:53;17.55;;;7.95;;
56927;SDS011;60850;52.502;13.426;2023-03-01T03:55:20;17.38;;;8.10;;
56927;SDS011;60850;52.502;13.426;2023-03-01T03:57:47;19.73;;;10.07;;
56927;SDS011;60850;52.502;13.426;2023-03-01T04:00:17;28.13;;;11.63;;
56927;SDS011;60850;52.502;13.426;2023-03-01T04:02:46;22.67;;;10.43;;
56927;SDS011;60850;52.502;13.426;2023-03-01T04:05:14;25.23;;;10.93;;
56927;SDS011;60850;52.502;13.426;2023-03-01T04:07:45;20.92;;;11.45;;
56927;SDS011;60850;52.502;13.426;2023-03-01T04:10:13;19.75;;;10.18;;
56927;SDS011;60850;52.502;13.426;2023-03-01T04:12:41;26.67;;;10.88;;
56927;SDS011;60850;52.502;13.426;2023-03-01T04:15:10;28.15;;;11.50;;
56927;SDS011;60850;52.502;13.426;2023-03-01T04:17:39;30.23;;;11.63;;
56927;SDS011;60850;52.502;13.426;2023-03-01T04:20:07;22.50;;;10.30;;
56927;SDS011;60850;52.502;13.426;2023-03-01T04:22:36;25.95;;;10.50;;
56927;SDS011;60850;52.502;13.426;2023-03-01T04:25:05;26.25;;;10.35;;
56927;SDS011;60850;52.502;13.426;2023-03-01T04:27:33;22.63;;;10.15;;
56927;SDS011;60850;52.502;13.426;2023-03-01T04:30:00;23.58;;;10.10;;
56927;SDS011;60850;52.502;13.426;2023-03-01T04:32:29;23.23;;;10.40;;
56927;SDS011;60850;52.502;13.426;2023-03-01T04:34:56;20.08;;;10.43;;
56927;SDS011;60850;52.502;13.426;2023-03-01T04:37:23;25.08;;;10.88;;
56927;SDS011;60850;52.502;13.426;2023-03-01T04:39:50;21.02;;;10.10;;
56927;SDS011;60850;52.502;13.426;2023-03-01T04:42:19;21.85;;;9.88;;
56927;SDS011;60850;52.502;13.426;2023-03-01T04:44:46;26.50;;;11.02;;
56927;SDS011;60850;52.502;13.426;2023-03-01T04:47:13;25.80;;;10.07;;
56927;SDS011;60850;52.502;13.426;2023-03-01T04:49:40;31.02;;;11.13;;
56927;SDS011;60850;52.502;13.426;2023-03-01T04:52:07;20.70;;;10.40;;
56927;SDS011;60850;52.502;13.426;2023-03-01T04:54:34;22.45;;;10.25;;
56927;SDS011;60850;52.502;13.426;2023-03-01T04:57:02;22.17;;;10.10;;
56927;SDS011;60850;52.502;13.426;2023-03-01T04:59:31;24.42;;;10.50;;
56927;SDS011;60850;52.502;13.426;2023-03-01T05:01:58;21.63;;;10.30;;
56927;SDS011;60850;52.502;13.426;2023-03-01T05:04:25;26.48;;;11.70;;
56927;SDS011;60850;52.502;13.426;2023-03-01T05:06:52;25.45;;;10.70;;
56927;SDS011;60850;52.502;13.426;2023-03-01T05:09:19;24.05;;;11.32;;
56927;SDS011;60850;52.502;13.426;2023-03-01T05:11:46;20.98;;;10.23;;
56927;SDS011;60850;52.502;13.426;2023-03-01T05:14:13;23.80;;;10.73;;
56927;SDS011;60850;52.502;13.426;2023-03-01T05:16:42;22.42;;;10.70;;
56927;SDS011;60850;52.502;13.426;2023-03-01T05:19:08;21.63;;;10.20;;
56927;SDS011;60850;52.502;13.426;2023-03-01T05:21:40;17.77;;;9.40;;
56927;SDS011;60850;52.502;13.426;2023-03-01T05:24:21;23.75;;;11.75;;
56927;SDS011;60850;52.502;13.426;2023-03-01T05:26:49;20.90;;;9.68;;
56927;SDS011;60850;52.502;13.426;2023-03-01T05:29:17;19.13;;;10.80;;
56927;SDS011;60850;52.502;13.426;2023-03-01T05:31:52;21.42;;;10.45;;
56927;SDS011;60850;52.502;13.426;2023-03-01T05:34:22;23.90;;;11.05;;
56927;SDS011;60850;52.502;13.426;2023-03-01T05:36:51;24.80;;;10.93;;
56927;SDS011;60850;52.502;13.426;2023-03-01T05:39:19;24.85;;;11.13;;
56927;SDS011;60850;52.502;13.426;2023-03-01T05:41:47;24.55;;;10.77;;
56927;SDS011;60850;52.502;13.426;2023-03-01T05:44:15;23.00;;;11.23;;
56927;SDS011;60850;52.502;13.426;2023-03-01T05:46:42;28.85;;;12.15;;
56927;SDS011;60850;52.502;13.426;2023-03-01T05:49:11;24.67;;;12.07;;
56927;SDS011;60850;52.502;13.426;2023-03-01T05:51:39;25.70;;;11.85;;
56927;SDS011;60850;52.502;13.426;2023-03-01T05:54:06;27.48;;;13.07;;
56927;SDS011;60850;52.502;13.426;2023-03-01T05:56:34;27.63;;;11.73;;
56927;SDS011;60850;52.502;13.426;2023-03-01T05:59:01;25.50;;;12.55;;
56927;SDS011;60850;52.502;13.426;2023-03-01T06:01:30;25.42;;;11.70;;
56927;SDS011;60850;52.502;13.426;2023-03-01T06:03:57;24.75;;;12.38;;
56927;SDS011;60850;52.502;13.426;2023-03-01T06:06:25;27.48;;;10.93;;
56927;SDS011;60850;52.502;13.426;2023-03-01T06:08:52;25.52;;;11.93;;
56927;SDS011;60850;52.502;13.426;2023-03-01T06:11:20;24.98;;;12.88;;
56927;SDS011;60850;52.502;13.426;2023-03-01T06:13:47;26.10;;;11.95;;
56927;SDS011;60850;52.502;13.426;2023-03-01T06:16:14;31.90;;;14.35;;
56927;SDS011;60850;52.502;13.426;2023-03-01T06:18:41;28.63;;;13.52;;
56927;SDS011;60850;52.502;13.426;2023-03-01T06:21:08;31.10;;;12.32;;
56927;SDS011;60850;52.502;13.426;2023-03-01T06:23:36;27.60;;;12.50;;
56927;SDS011;60850;52.502;13.426;2023-03-01T06:26:07;29.35;;;12.10;;
56927;SDS011;60850;52.502;13.426;2023-03-01T06:28:35;30.35;;;13.02;;
56927;SDS011;60850;52.502;13.426;2023-03-01T06:31:02;25.70;;;11.93;;
56927;SDS011;60850;52.502;13.426;2023-03-01T06:33:29;23.27;;;12.60;;
56927;SDS011;60850;52.502;13.426;2023-03-01T06:35:57;26.08;;;11.43;;
56927;SDS011;60850;52.502;13.426;2023-03-01T06:38:24;29.15;;;14.15;;
56927;SDS011;60850;52.502;13.426;2023-03-01T06:40:53;26.83;;;12.77;;
56927;SDS011;60850;52.502;13.426;2023-03-01T06:43:21;22.88;;;12.43;;
56927;SDS011;60850;52.502;13.426;2023-03-01T06:45:50;29.55;;;12.70;;
56927;SDS011;60850;52.502;13.426;2023-03-01T06:48:17;25.83;;;12.88;;
56927;SDS011;60850;52.502;13.426;2023-03-01T06:50:44;28.33;;;13.32;;
56927;SDS011;60850;52.502;13.426;2023-03-01T06:53:11;27.40;;;14.40;;
56927;SDS011;60850;52.502;13.426;2023-03-01T06:55:40;33.88;;;14.02;;
56927;SDS011;60850;52.502;13.426;2023-03-01T06:58:09;24.80;;;13.95;;
56927;SDS011;60850;52.502;13.426;2023-03-01T07:00:37;28.45;;;14.27;;
56927;SDS011;60850;52.502;13.426;2023-03-01T07:03:06;28.42;;;13.85;;
56927;SDS011;60850;52.502;13.426;2023-03-01T07:05:33;30.58;;;14.25;;
56927;SDS011;60850;52.502;13.426;2023-03-01T07:08:01;26.90;;;13.80;;
56927;SDS011;60850;52.502;13.426;2023-03-01T07:10:28;30.02;;;15.07;;
56927;SDS011;60850;52.502;13.426;2023-03-01T07:12:55;27.73;;;13.90;;
56927;SDS011;60850;52.502;13.426;2023-03-01T07:15:24;31.83;;;15.32;;
56927;SDS011;60850;52.502;13.426;2023-03-01T07:17:52;33.92;;;15.88;;
56927;SDS011;60850;52.502;13.426;2023-03-01T07:20:21;25.92;;;14.82;;
56927;SDS011;60850;52.502;13.426;2023-03-01T07:22:50;32.30;;;15.55;;
56927;SDS011;60850;52.502;13.426;2023-03-01T07:25:17;39.60;;;15.90;;
56927;SDS011;60850;52.502;13.426;2023-03-01T07:27:48;33.30;;;16.45;;
56927;SDS011;60850;52.502;13.426;2023-03-01T07:30:16;61.05;;;17.55;;
56927;SDS011;60850;52.502;13.426;2023-03-01T07:32:45;54.22;;;17.30;;
56927;SDS011;60850;52.502;13.426;2023-03-01T07:35:12;32.97;;;15.98;;
56927;SDS011;60850;52.502;13.426;2023-03-01T07:37:40;35.13;;;16.60;;
56927;SDS011;60850;52.502;13.426;2023-03-01T07:40:07;32.33;;;16.63;;
56927;SDS011;60850;52.502;13.426;2023-03-01T07:42:35;33.83;;;15.52;;
56927;SDS011;60850;52.502;13.426;2023-03-01T07:45:02;30.92;;;15.18;;
56927;SDS011;60850;52.502;13.426;2023-03-01T07:47:30;37.22;;;17.83;;
56927;SDS011;60850;52.502;13.426;2023-03-01T07:49:58;39.67;;;18.98;;
56927;SDS011;60850;52.502;13.426;2023-03-01T07:52:26;29.33;;;14.38;;
56927;SDS011;60850;52.502;13.426;2023-03-01T07:54:53;25.50;;;12.23;;
56927;SDS011;60850;52.502;13.426;2023-03-01T07:57:20;22.77;;;11.38;;
56927;SDS011;60850;52.502;13.426;2023-03-01T07:59:47;21.80;;;12.43;;
56927;SDS011;60850;52.502;13.426;2023-03-01T08:02:14;21.55;;;12.32;;
56927;SDS011;60850;52.502;13.426;2023-03-01T08:04:41;24.90;;;12.45;;
56927;SDS011;60850;52.502;13.426;2023-03-01T08:07:09;22.25;;;11.52;;
56927;SDS011;60850;52.502;13.426;2023-03-01T08:09:36;19.77;;;11.65;;
56927;SDS011;60850;52.502;13.426;2023-03-01T08:12:03;26.27;;;10.63;;
56927;SDS011;60850;52.502;13.426;2023-03-01T08:14:31;23.45;;;12.93;;
56927;SDS011;60850;52.502;13.426;2023-03-01T08:16:58;22.05;;;11.75;;
56927;SDS011;60850;52.502;13.426;2023-03-01T08:19:25;21.10;;;11.60;;
56927;SDS011;60850;52.502;13.426;2023-03-01T08:21:53;24.00;;;13.13;;
56927;SDS011;60850;52.502;13.426;2023-03-01T08:24:21;22.67;;;12.55;;
56927;SDS011;60850;52.502;13.426;2023-03-01T08:26:48;21.30;;;11.50;;
56927;SDS011;60850;52.502;13.426;2023-03-01T08:29:15;20.63;;;12.40;;
56927;SDS011;60850;52.502;13.426;2023-03-01T08:31:42;19.13;;;12.00;;
56927;SDS011;60850;52.502;13.426;2023-03-01T08:34:11;43.17;;;20.73;;
56927;SDS011;60850;52.502;13.426;2023-03-01T08:36:41;27.40;;;15.23;;
56927;SDS011;60850;52.502;13.426;2023-03-01T08:39:10;24.33;;;13.05;;
56927;SDS011;60850;52.502;13.426;2023-03-01T08:41:40;21.77;;;11.80;;
56927;SDS011;60850;52.502;13.426;2023-03-01T08:44:07;12.48;;;8.38;;
56927;SDS011;60850;52.502;13.426;2023-03-01T08:46:34;12.63;;;7.35;;
56927;SDS011;60850;52.502;13.426;2023-03-01T08:49:03;10.90;;;7.20;;
56927;SDS011;60850;52.502;13.426;2023-03-01T08:51:32;10.07;;;6.40;;
56927;SDS011;60850;52.502;13.426;2023-03-01T08:54:02;13.57;;;7.40;;
56927;SDS011;60850;52.502;13.426;2023-03-01T08:56:29;13.15;;;7.13;;
56927;SDS011;60850;52.502;13.426;2023-03-01T08:58:58;13.52;;;7.15;;
56927;SDS011;60850;52.502;13.426;2023-03-01T09:01:24;10.70;;;7.25;;
56927;SDS011;60850;52.502;13.426;2023-03-01T09:03:52;8.77;;;6.70;;
56927;SDS011;60850;52.502;13.426;2023-03-01T09:06:18;11.82;;;6.30;;
56927;SDS011;60850;52.502;13.426;2023-03-01T09:08:47;10.98;;;7.35;;
56927;SDS011;60850;52.502;13.426;2023-03-01T09:11:15;14.07;;;6.72;;
56927;SDS011;60850;52.502;13.426;2023-03-01T09:13:44;13.25;;;7.25;;
56927;SDS011;60850;52.502;13.426;2023-03-01T09:16:13;10.02;;;6.43;;
56927;SDS011;60850;52.502;13.426;2023-03-01T09:18:42;10.68;;;6.53;;
56927;SDS011;60850;52.502;13.426;2023-03-01T09:21:09;10.40;;;6.60;;
56927;SDS011;60850;52.502;13.426;2023-03-01T09:23:39;11.07;;;6.22;;
56927;SDS011;60850;52.502;13.426;2023-03-01T09:26:08;15.15;;;6.53;;
56927;SDS011;60850;52.502;13.426;2023-03-01T09:28:37;12.77;;;6.10;;
56927;SDS011;60850;52.502;13.426;2023-03-01T09:31:04;10.80;;;5.57;;
56927;SDS011;60850;52.502;13.426;2023-03-01T09:33:33;8.98;;;5.47;;
56927;SDS011;60850;52.502;13.426;2023-03-01T09:36:01;8.27;;;5.57;;
56927;SDS011;60850;52.502;13.426;2023-03-01T09:38:30;9.35;;;5.43;;
56927;SDS011;60850;52.502;13.426;2023-03-01T09:40:57;8.90;;;5.20;;
56927;SDS011;60850;52.502;13.426;2023-03-01T09:43:26;10.98;;;4.97;;
56927;SDS011;60850;52.502;13.426;2023-03-01T09:46:03;9.43;;;4.55;;
56927;SDS011;60850;52.502;13.426;2023-03-01T09:48:37;8.35;;;4.70;;
56927;SDS011;60850;52.502;13.426;2023-03-01T09:51:08;8.43;;;3.85;;
56927;SDS011;60850;52.502;13.426;2023-03-01T09:53:41;9.25;;;4.35;;
56927;SDS011;60850;52.502;13.426;2023-03-01T09:56:11;8.45;;;4.00;;
56927;SDS011;60850;52.502;13.426;2023-03-01T09:58:47;6.90;;;3.17;;
56927;SDS011;60850;52.502;13.426;2023-03-01T10:01:23;7.07;;;3.47;;
56927;SDS011;60850;52.502;13.426;2023-03-01T10:04:05;7.28;;;3.28;;
56927;SDS011;60850;52.502;13.426;2023-03-01T10:06:39;8.75;;;3.78;;
56927;SDS011;60850;52.502;13.426;2023-03-01T10:09:13;8.88;;;4.28;;
56927;SDS011;60850;52.502;13.426;2023-03-01T10:11:44;8.05;;;3.90;;
56927;SDS011;60850;52.502;13.426;2023-03-01T10:14:15;5.75;;;3.58;;
56927;SDS011;60850;52.502;13.426;2023-03-01T10:16:54;7.30;;;4.25;;
56927;SDS011;60850;52.502;13.426;2023-03-01T10:19:29;8.60;;;4.00;;
56927;SDS011;60850;52.502;13.426;2023-03-01T10:22:00;6.93;;;3.78;;
56927;SDS011;60850;52.502;13.426;2023-03-01T10:24:32;7.85;;;3.95;;
56927;SDS011;60850;52.502;13.426;2023-03-01T10:27:03;8.65;;;3.83;;
56927;SDS011;60850;52.502;13.426;2023-03-01T10:29:34;7.43;;;3.78;;
56927;SDS011;60850;52.502;13.426;2023-03-01T10:32:05;7.45;;;3.50;;
56927;SDS011;60850;52.502;13.426;2023-03-01T10:34:34;8.57;;;3.40;;
56927;SDS011;60850;52.502;13.426;2023-03-01T10:37:08;8.45;;;3.90;;
56927;SDS011;60850;52.502;13.426;2023-03-01T10:39:37;6.40;;;3.70;;
56927;SDS011;60850;52.502;13.426;2023-03-01T10:42:22;6.57;;;3.88;;
56927;SDS011;60850;52.502;13.426;2023-03-01T10:44:53;12.05;;;4.18;;
56927;SDS011;60850;52.502;13.426;2023-03-01T10:47:21;8.32;;;4.18;;
56927;SDS011;60850;52.502;13.426;2023-03-01T10:49:55;10.88;;;4.88;;
56927;SDS011;60850;52.502;13.426;2023-03-01T10:52:25;8.50;;;4.07;;
56927;SDS011;60850;52.502;13.426;2023-03-01T10:54:57;6.47;;;3.90;;
56927;SDS011;60850;52.502;13.426;2023-03-01T10:57:29;9.02;;;3.80;;
56927;SDS011;60850;52.502;13.426;2023-03-01T11:03:03;6.90;;;3.60;;
56927;SDS011;60850;52.502;13.426;2023-03-01T11:05:51;6.93;;;4.05;;
56927;SDS011;60850;52.502;13.426;2023-03-01T11:08:36;7.85;;;3.85;;
56927;SDS011;60850;52.502;13.426;2023-03-01T11:11:24;5.03;;;3.13;;
56927;SDS011;60850;52.502;13.426;2023-03-01T11:13:58;9.23;;;4.05;;
56927;SDS011;60850;52.502;13.426;2023-03-01T11:16:31;10.02;;;3.30;;
56927;SDS011;60850;52.502;13.426;2023-03-01T11:19:04;8.60;;;3.67;;
56927;SDS011;60850;52.502;13.426;2023-03-01T11:21:47;8.90;;;4.03;;
56927;SDS011;60850;52.502;13.426;2023-03-01T11:24:22;6.88;;;2.83;;
56927;SDS011;60850;52.502;13.426;2023-03-01T11:26:56;5.38;;;3.13;;
56927;SDS011;60850;52.502;13.426;2023-03-01T11:29:27;7.70;;;3.38;;
56927;SDS011;60850;52.502;13.426;2023-03-01T11:31:59;4.10;;;1.95;;
56927;SDS011;60850;52.502;13.426;2023-03-01T11:34:34;5.72;;;2.15;;
56927;SDS011;60850;52.502;13.426;2023-03-01T11:37:10;5.15;;;2.42;;
56927;SDS011;60850;52.502;13.426;2023-03-01T11:39:51;5.57;;;2.30;;
56927;SDS011;60850;52.502;13.426;2023-03-01T11:42:28;5.35;;;2.40;;
56927;SDS011;60850;52.502;13.426;2023-03-01T11:45:11;5.63;;;2.03;;
56927;SDS011;60850;52.502;13.426;2023-03-01T11:47:55;5.63;;;1.90;;
56927;SDS011;60850;52.502;13.426;2023-03-01T11:50:30;5.55;;;2.22;;
56927;SDS011;60850;52.502;13.426;2023-03-01T11:53:11;3.55;;;1.92;;
56927;SDS011;60850;52.502;13.426;2023-03-01T11:55:58;4.35;;;2.20;;
56927;SDS011;60850;52.502;13.426;2023-03-01T11:58:36;3.15;;;1.73;;
56927;SDS011;60850;52.502;13.426;2023-03-01T12:01:13;4.07;;;1.95;;
56927;SDS011;60850;52.502;13.426;2023-03-01T12:03:56;6.20;;;2.22;;
56927;SDS011;60850;52.502;13.426;2023-03-01T12:06:43;9.25;;;2.30;;
56927;SDS011;60850;52.502;13.426;2023-03-01T12:09:30;4.05;;;1.90;;
56927;SDS011;60850;52.502;13.426;2023-03-01T12:12:27;3.08;;;1.92;;
56927;SDS011;60850;52.502;13.426;2023-03-01T12:15:23;3.92;;;1.83;;
56927;SDS011;60850;52.502;13.426;2023-03-01T12:18:06;4.15;;;1.40;;
56927;SDS011;60850;52.502;13.426;2023-03-01T12:20:41;5.68;;;1.95;;
56927;SDS011;60850;52.502;13.426;2023-03-01T12:23:33;3.72;;;1.85;;
56927;SDS011;60850;52.502;13.426;2023-03-01T12:26:17;8.18;;;1.77;;
56927;SDS011;60850;52.502;13.426;2023-03-01T12:29:00;3.10;;;1.55;;
56927;SDS011;60850;52.502;13.426;2023-03-01T12:34:39;3.45;;;1.70;;
56927;SDS011;60850;52.502;13.426;2023-03-01T12:37:25;4.95;;;1.88;;
56927;SDS011;60850;52.502;13.426;2023-03-01T12:40:02;4.00;;;1.63;;
56927;SDS011;60850;52.502;13.426;2023-03-01T12:42:46;3.75;;;1.88;;
56927;SDS011;60850;52.502;13.426;2023-03-01T12:45:27;3.80;;;1.50;;
56927;SDS011;60850;52.502;13.426;2023-03-01T12:48:06;4.18;;;1.50;;
56927;SDS011;60850;52.502;13.426;2023-03-01T12:50:45;5.47;;;1.55;;
56927;SDS011;60850;52.502;13.426;2023-03-01T12:53:19;4.60;;;1.85;;
56927;SDS011;60850;52.502;13.426;2023-03-01T12:55:50;2.78;;;1.50;;
56927;SDS011;60850;52.502;13.426;2023-03-01T12:58:23;5.68;;;2.58;;
56927;SDS011;60850;52.502;13.426;2023-03-01T13:01:00;4.45;;;2.00;;
56927;SDS011;60850;52.502;13.426;2023-03-01T13:03:57;3.95;;;1.83;;
56927;SDS011;60850;52.502;13.426;2023-03-01T13:06:46;2.38;;;1.42;;
56927;SDS011;60850;52.502;13.426;2023-03-01T13:09:23;3.00;;;1.48;;
56927;SDS011;60850;52.502;13.426;2023-03-01T13:14:36;2.13;;;1.40;;
56927;SDS011;60850;52.502;13.426;2023-03-01T13:17:25;5.07;;;2.03;;
56927;SDS011;60850;52.502;13.426;2023-03-01T13:19:58;2.38;;;1.45;;
56927;SDS011;60850;52.502;13.426;2023-03-01T13:22:27;4.07;;;1.52;;
56927;SDS011;60850;52.502;13.426;2023-03-01T13:25:01;4.75;;;1.70;;
56927;SDS011;60850;52.502;13.426;2023-03-01T13:27:39;3.33;;;1.58;;
56927;SDS011;60850;52.502;13.426;2023-03-01T13:30:12;5.30;;;2.00;;
56927;SDS011;60850;52.502;13.426;2023-03-01T13:36:08;3.35;;;1.52;;
56927;SDS011;60850;52.502;13.426;2023-03-01T13:38:44;2.78;;;1.92;;
56927;SDS011;60850;52.502;13.426;2023-03-01T13:41:14;3.33;;;1.38;;
56927;SDS011;60850;52.502;13.426;2023-03-01T13:43:42;7.07;;;1.92;;
56927;SDS011;60850;52.502;13.426;2023-03-01T13:46:15;2.80;;;1.45;;
56927;SDS011;60850;52.502;13.426;2023-03-01T13:48:45;4.43;;;1.67;;
56927;SDS011;60850;52.502;13.426;2023-03-01T13:51:15;3.58;;;1.90;;
56927;SDS011;60850;52.502;13.426;2023-03-01T13:53:42;5.88;;;1.73;;
56927;SDS011;60850;52.502;13.426;2023-03-01T13:56:12;3.42;;;1.73;;
56927;SDS011;60850;52.502;13.426;2023-03-01T13:58:50;4.57;;;2.05;;
56927;SDS011;60850;52.502;13.426;2023-03-01T14:01:25;3.85;;;2.20;;
56927;SDS011;60850;52.502;13.426;2023-03-01T14:03:54;4.22;;;2.22;;
56927;SDS011;60850;52.502;13.426;2023-03-01T14:06:22;7.43;;;2.20;;
56927;SDS011;60850;52.502;13.426;2023-03-01T14:09:00;4.63;;;2.13;;
56927;SDS011;60850;52.502;13.426;2023-03-01T14:14:40;4.85;;;2.17;;
56927;SDS011;60850;52.502;13.426;2023-03-01T14:17:22;2.92;;;1.80;;
56927;SDS011;60850;52.502;13.426;2023-03-01T14:19:59;4.47;;;2.33;;
56927;SDS011;60850;52.502;13.426;2023-03-01T14:22:32;5.00;;;1.83;;
56927;SDS011;60850;52.502;13.426;2023-03-01T14:25:02;3.38;;;1.63;;
56927;SDS011;60850;52.502;13.426;2023-03-01T14:27:33;3.60;;;1.90;;
56927;SDS011;60850;52.502;13.426;2023-03-01T14:30:09;4.43;;;2.05;;
56927;SDS011;60850;52.502;13.426;2023-03-01T14:32:42;5.18;;;1.70;;
56927;SDS011;60850;52.502;13.426;2023-03-01T14:35:18;3.17;;;1.65;;
56927;SDS011;60850;52.502;13.426;2023-03-01T14:37:47;4.00;;;1.85;;
56927;SDS011;60850;52.502;13.426;2023-03-01T14:40:23;3.80;;;1.70;;
56927;SDS011;60850;52.502;13.426;2023-03-01T14:42:56;4.68;;;2.30;;
56927;SDS011;60850;52.502;13.426;2023-03-01T14:45:25;4.45;;;2.10;;
56927;SDS011;60850;52.502;13.426;2023-03-01T14:47:55;2.30;;;1.30;;
56927;SDS011;60850;52.502;13.426;2023-03-01T14:50:28;4.90;;;1.80;;
56927;SDS011;60850;52.502;13.426;2023-03-01T14:52:58;3.25;;;1.65;;
56927;SDS011;60850;52.502;13.426;2023-03-01T14:55:29;4.15;;;1.67;;
56927;SDS011;60850;52.502;13.426;2023-03-01T14:57:58;3.22;;;1.73;;